Time;durP1;ratioP1;P1;durP2;ratioP2;P2;SDS_P1;SDS_P2;PMS_P1;PMS_P2;Temp;Humidity;BMP_temperature;BMP_pressure;BME280_temperature;BME280_humidity;BME280_pressure;Samples;Min_cycle;Max_cycle;Signal;HPM_P1;HPM_P2
2023/10/19 00:00:59;;;;;;;;;;;8.70;82.30;;;;;;5066972;28;19916;-47
2023/10/19 00:03:25;;;;;;;;;;;8.70;82.20;;;;;;5073338;28;20309;-48
2023/10/19 00:05:52;;;;;;;;;;;8.70;82.40;;;;;;5073060;28;19904;-48
2023/10/19 00:08:20;;;;;;;;;;;8.70;82.40;;;;;;5073631;28;19908;-48
2023/10/19 00:10:55;;;;;;;;;;;8.70;82.30;;;;;;5069591;28;19909;-53
2023/10/19 00:13:23;;;;;;;;;;;8.70;82.70;;;;;;5053480;28;19944;-49
2023/10/19 00:15:53;;;;;;;;;;;8.70;83.10;;;;;;5033581;28;20328;-52
2023/10/19 00:18:32;;;;;;;;;;;8.70;82.90;;;;;;5033402;28;20270;-49
2023/10/19 00:20:59;;;;;;;;;;;8.60;83.00;;;;;;5047665;28;19913;-53
2023/10/19 00:23:30;;;;;;;;;;;8.60;83.20;;;;;;5048725;28;20393;-53
2023/10/19 00:26:17;;;;;;;;;;;8.50;83.80;;;;;;5050281;28;19928;-52
2023/10/19 00:28:46;;;;;;;;;;;8.50;83.70;;;;;;5033154;28;19916;-47
2023/10/19 00:31:13;;;;;;;;;;;8.50;83.80;;;;;;5033348;28;19909;-46
2023/10/19 00:33:40;;;;;;;;;;;8.40;83.80;;;;;;5051908;28;19909;-45
2023/10/19 00:36:14;;;;;;;;;;;8.40;84.00;;;;;;5052361;28;19913;-47
2023/10/19 00:38:47;;;;;;;;;;;8.40;84.40;;;;;;5052742;28;19916;-47
2023/10/19 00:41:14;;;;;;;;;;;8.40;84.70;;;;;;5051398;28;19920;-44
2023/10/19 00:43:46;;;;;;;;;;;8.40;85.20;;;;;;5043350;28;19915;-49
2023/10/19 00:46:20;;;;;;;;;;;8.40;85.20;;;;;;5052435;28;19955;-46
2023/10/19 00:48:53;;;;;;;;;;;8.30;85.90;;;;;;5045410;28;20309;-46
2023/10/19 00:51:42;;;;;;;;;;;8.30;85.80;;;;;;5031433;28;19983;-45
2023/10/19 00:54:14;;;;;;;;;;;8.20;86.20;;;;;;5047474;28;19908;-49
2023/10/19 00:56:48;;;;;;;;;;;8.20;86.70;;;;;;5046572;28;20376;-49
2023/10/19 00:59:22;;;;;;;;;;;8.20;87.10;;;;;;5052688;28;19904;-51
2023/10/19 01:01:50;;;;;;;;;;;8.20;86.90;;;;;;5052237;28;20003;-45
2023/10/19 01:04:33;;;;;;;;;;;8.20;87.10;;;;;;5038215;28;20465;-46
2023/10/19 01:07:22;;;;;;;;;;;8.10;87.20;;;;;;5041211;28;19912;-47
2023/10/19 01:09:53;;;;;;;;;;;8.10;87.40;;;;;;5056460;28;19940;-51
2023/10/19 01:12:54;;;;;;;;;;;8.10;87.40;;;;;;5057394;28;19982;-47
2023/10/19 01:15:17;;;;;;;;;;;8.10;87.90;;;;;;5056367;28;19923;-49
2023/10/19 01:17:45;;;;;;;;;;;8.00;87.90;;;;;;5056829;28;19916;-48
2023/10/19 01:20:22;;;;;;;;;;;8.00;87.70;;;;;;5056480;28;20324;-51
2023/10/19 01:25:49;;;;;;;;;;;8.00;88.40;;;;;;5076657;28;19915;-53
2023/10/19 01:28:17;;;;;;;;;;;7.90;88.90;;;;;;5076558;28;19957;-52
2023/10/19 01:30:51;;;;;;;;;;;8.00;89.60;;;;;;5058821;28;19920;-53
2023/10/19 01:33:21;;;;;;;;;;;7.90;89.80;;;;;;5056481;28;19928;-49
2023/10/19 01:38:35;;;;;;;;;;;7.80;90.50;;;;;;5071842;28;19919;-50
2023/10/19 01:41:26;;;;;;;;;;;7.80;90.80;;;;;;5076624;28;19956;-50
2023/10/19 01:44:04;;;;;;;;;;;7.80;91.20;;;;;;5073234;28;19922;-49
2023/10/19 01:46:35;;;;;;;;;;;7.70;91.30;;;;;;5056150;28;19904;-50
2023/10/19 01:49:18;;;;;;;;;;;7.70;91.50;;;;;;5072361;28;19967;-51
2023/10/19 01:51:46;;;;;;;;;;;7.60;91.50;;;;;;5061584;28;19974;-53
2023/10/19 01:54:16;;;;;;;;;;;7.50;91.90;;;;;;5074549;28;20336;-53
2023/10/19 01:56:43;;;;;;;;;;;7.50;92.10;;;;;;5075517;28;19913;-53
2023/10/19 01:59:10;;;;;;;;;;;7.50;92.20;;;;;;5067970;28;20351;-53
2023/10/19 02:01:37;;;;;;;;;;;7.50;92.40;;;;;;5075626;28;20306;-53
2023/10/19 02:04:05;;;;;;;;;;;7.50;92.40;;;;;;5075555;28;19909;-49
2023/10/19 02:06:38;;;;;;;;;;;7.50;92.50;;;;;;5074804;28;20335;-50
2023/10/19 02:11:41;;;;;;;;;;;7.50;92.70;;;;;;5055583;28;20388;-53
2023/10/19 02:14:14;;;;;;;;;;;7.50;92.90;;;;;;5055079;28;20350;-49
2023/10/19 02:16:43;;;;;;;;;;;7.50;93.00;;;;;;5073519;28;20368;-55
2023/10/19 02:19:13;;;;;;;;;;;7.50;93.00;;;;;;5074641;28;19912;-54
2023/10/19 02:21:41;;;;;;;;;;;7.50;93.10;;;;;;5075636;28;19912;-53
2023/10/19 02:24:09;;;;;;;;;;;7.50;93.20;;;;;;5074924;28;19909;-56
2023/10/19 02:26:37;;;;;;;;;;;7.40;93.20;;;;;;5075827;28;19916;-52
2023/10/19 02:29:07;;;;;;;;;;;7.40;93.20;;;;;;5073276;28;19908;-48
2023/10/19 02:31:41;;;;;;;;;;;7.40;93.40;;;;;;5069789;28;19948;-51
2023/10/19 02:34:11;;;;;;;;;;;7.50;93.40;;;;;;5074017;28;19912;-53
2023/10/19 02:36:39;;;;;;;;;;;7.40;93.40;;;;;;5074231;28;19912;-51
2023/10/19 02:39:10;;;;;;;;;;;7.50;93.40;;;;;;5073758;28;19920;-54
2023/10/19 02:41:37;;;;;;;;;;;7.40;93.40;;;;;;5066735;28;19974;-53
2023/10/19 02:46:34;;;;;;;;;;;7.40;93.60;;;;;;5054123;28;20326;-53
2023/10/19 02:49:18;;;;;;;;;;;7.40;93.60;;;;;;5065549;28;19986;-51
2023/10/19 02:51:45;;;;;;;;;;;7.40;93.60;;;;;;5055205;28;19919;-54
2023/10/19 02:54:32;;;;;;;;;;;7.40;93.60;;;;;;5070326;28;19944;-52
2023/10/19 02:56:59;;;;;;;;;;;7.40;93.80;;;;;;5067923;28;19918;-52
2023/10/19 02:59:28;;;;;;;;;;;7.40;93.90;;;;;;5055973;28;19956;-50
2023/10/19 03:02:17;;;;;;;;;;;7.40;93.90;;;;;;5075024;28;19935;-52
2023/10/19 03:04:45;;;;;;;;;;;7.40;94.00;;;;;;5058995;28;19912;-49
2023/10/19 03:07:13;;;;;;;;;;;7.40;94.00;;;;;;5062476;28;19913;-49
2023/10/19 03:09:48;;;;;;;;;;;7.40;93.90;;;;;;5072992;28;19912;-49
2023/10/19 03:12:18;;;;;;;;;;;7.30;93.90;;;;;;5064307;28;19924;-52
2023/10/19 03:14:48;;;;;;;;;;;7.40;93.90;;;;;;5042332;28;19909;-47
2023/10/19 03:17:14;;;;;;;;;;;7.40;94.10;;;;;;5034435;28;19913;-54
2023/10/19 03:19:42;;;;;;;;;;;7.40;94.10;;;;;;5030401;28;20357;-49
2023/10/19 03:22:10;;;;;;;;;;;7.40;94.10;;;;;;5034425;28;19908;-50
2023/10/19 03:27:24;;;;;;;;;;;7.40;94.10;;;;;;5044962;28;20250;-52
2023/10/19 03:29:59;;;;;;;;;;;7.40;94.10;;;;;;5038080;28;20004;-51
2023/10/19 03:32:32;;;;;;;;;;;7.40;94.20;;;;;;5053964;28;20322;-48
2023/10/19 03:35:08;;;;;;;;;;;7.40;94.20;;;;;;5039765;28;19916;-50
2023/10/19 03:37:35;;;;;;;;;;;7.40;94.30;;;;;;5034086;28;19905;-48
2023/10/19 03:40:06;;;;;;;;;;;7.40;94.30;;;;;;5050731;28;19909;-48
2023/10/19 03:42:40;;;;;;;;;;;7.40;94.30;;;;;;5054122;28;19905;-51
2023/10/19 03:45:13;;;;;;;;;;;7.40;94.40;;;;;;5034030;28;19991;-49
2023/10/19 03:47:43;;;;;;;;;;;7.30;94.30;;;;;;5034113;28;19909;-48
2023/10/19 03:50:20;;;;;;;;;;;7.30;94.30;;;;;;5051841;28;19924;-51
2023/10/19 03:52:47;;;;;;;;;;;7.30;94.40;;;;;;5035607;28;19913;-55
2023/10/19 03:55:24;;;;;;;;;;;7.30;94.50;;;;;;5050611;28;19909;-50
2023/10/19 03:57:56;;;;;;;;;;;7.30;94.40;;;;;;5053684;28;20299;-48
2023/10/19 04:00:28;;;;;;;;;;;7.30;94.50;;;;;;5042797;28;19913;-48
2023/10/19 04:03:06;;;;;;;;;;;7.30;94.40;;;;;;5033220;28;19964;-51
2023/10/19 04:05:38;;;;;;;;;;;7.30;94.60;;;;;;5053507;28;20246;-54
2023/10/19 04:08:17;;;;;;;;;;;7.30;94.50;;;;;;5053341;28;19970;-53
2023/10/19 04:11:08;;;;;;;;;;;7.30;94.60;;;;;;5053343;28;20364;-50
2023/10/19 04:13:37;;;;;;;;;;;7.30;94.70;;;;;;5050553;28;19921;-50
2023/10/19 04:16:03;;;;;;;;;;;7.30;94.60;;;;;;5053169;28;19921;-51
2023/10/19 04:18:30;;;;;;;;;;;7.30;94.70;;;;;;5053448;28;19921;-49
2023/10/19 04:20:58;;;;;;;;;;;7.30;94.70;;;;;;5040001;28;20313;-52
2023/10/19 04:23:29;;;;;;;;;;;7.30;94.70;;;;;;5033522;28;19905;-49
2023/10/19 04:26:04;;;;;;;;;;;7.30;94.70;;;;;;5045694;28;19924;-51
2023/10/19 04:28:50;;;;;;;;;;;7.30;94.70;;;;;;5018577;28;19971;-52
2023/10/19 04:31:18;;;;;;;;;;;7.40;94.80;;;;;;5033400;28;19916;-49
2023/10/19 04:33:45;;;;;;;;;;;7.40;94.90;;;;;;5019203;28;19944;-52
2023/10/19 04:36:16;;;;;;;;;;;7.30;94.80;;;;;;5035213;28;19936;-52
2023/10/19 04:38:44;;;;;;;;;;;7.30;94.80;;;;;;5051889;28;20008;-49
2023/10/19 04:41:10;;;;;;;;;;;7.30;94.90;;;;;;5051818;28;19955;-54
2023/10/19 04:43:39;;;;;;;;;;;7.30;94.90;;;;;;5016915;28;19909;-51
2023/10/19 04:46:14;;;;;;;;;;;7.30;94.90;;;;;;5035015;28;20369;-48
2023/10/19 04:48:40;;;;;;;;;;;7.30;95.00;;;;;;5052735;28;19947;-47
2023/10/19 04:51:07;;;;;;;;;;;7.30;94.90;;;;;;5047909;28;19941;-50
2023/10/19 04:53:33;;;;;;;;;;;7.30;95.10;;;;;;5031812;28;19909;-51
2023/10/19 04:56:00;;;;;;;;;;;7.20;95.00;;;;;;5049706;28;19927;-51
2023/10/19 04:58:28;;;;;;;;;;;7.30;95.00;;;;;;5032558;28;20364;-49
2023/10/19 05:00:58;;;;;;;;;;;7.20;95.10;;;;;;5021129;28;19913;-53
2023/10/19 05:03:25;;;;;;;;;;;7.20;95.20;;;;;;5052708;28;20389;-54
2023/10/19 05:05:52;;;;;;;;;;;7.20;95.20;;;;;;5034437;28;19947;-50
2023/10/19 05:08:18;;;;;;;;;;;7.20;95.30;;;;;;5052475;28;19909;-53
2023/10/19 05:10:44;;;;;;;;;;;7.20;95.40;;;;;;5052380;28;20218;-51
2023/10/19 05:13:11;;;;;;;;;;;7.20;95.30;;;;;;5042182;28;19967;-48
2023/10/19 05:15:38;;;;;;;;;;;7.20;95.40;;;;;;5032378;28;19920;-50
2023/10/19 05:18:06;;;;;;;;;;;7.20;95.30;;;;;;5032593;28;19916;-50
2023/10/19 05:20:40;;;;;;;;;;;7.20;95.40;;;;;;5044633;28;20356;-53
2023/10/19 05:23:08;;;;;;;;;;;7.20;95.40;;;;;;5046118;28;19916;-47
2023/10/19 05:25:36;;;;;;;;;;;7.20;95.40;;;;;;5042341;28;19924;-49
2023/10/19 05:28:04;;;;;;;;;;;7.30;95.40;;;;;;5037262;28;19998;-47
2023/10/19 05:30:31;;;;;;;;;;;7.20;95.40;;;;;;5015513;28;20246;-49
2023/10/19 05:32:58;;;;;;;;;;;7.20;95.40;;;;;;5044085;28;19912;-47
2023/10/19 05:35:26;;;;;;;;;;;7.20;95.40;;;;;;5034537;28;19923;-47
2023/10/19 05:37:58;;;;;;;;;;;7.20;95.50;;;;;;5042359;28;19915;-50
2023/10/19 05:40:29;;;;;;;;;;;7.20;95.40;;;;;;5038705;28;20007;-47
2023/10/19 05:42:56;;;;;;;;;;;7.20;95.50;;;;;;5052547;28;19966;-47
2023/10/19 05:45:23;;;;;;;;;;;7.30;95.50;;;;;;5035012;28;19908;-47
2023/10/19 05:47:49;;;;;;;;;;;7.30;95.50;;;;;;5045234;28;20404;-51
2023/10/19 05:50:16;;;;;;;;;;;7.20;95.50;;;;;;5037724;28;19912;-48
2023/10/19 05:52:44;;;;;;;;;;;7.30;95.50;;;;;;5044530;28;19952;-47
2023/10/19 05:55:12;;;;;;;;;;;7.30;95.50;;;;;;5021549;28;19921;-46
2023/10/19 05:57:42;;;;;;;;;;;7.20;95.50;;;;;;5018992;28;20278;-50
2023/10/19 06:00:12;;;;;;;;;;;7.20;95.50;;;;;;5036257;28;19948;-46
2023/10/19 06:02:43;;;;;;;;;;;7.30;95.60;;;;;;5038583;28;19913;-47
2023/10/19 06:05:11;;;;;;;;;;;7.30;95.50;;;;;;5036562;28;19917;-46
2023/10/19 06:07:37;;;;;;;;;;;7.30;95.50;;;;;;5034522;28;19960;-47
2023/10/19 06:10:06;;;;;;;;;;;7.30;95.50;;;;;;5035376;28;19915;-49
2023/10/19 06:12:34;;;;;;;;;;;7.30;95.50;;;;;;5067502;28;20349;-47
2023/10/19 06:15:06;;;;;;;;;;;7.30;95.50;;;;;;5069106;28;19912;-46
2023/10/19 06:17:33;;;;;;;;;;;7.30;95.50;;;;;;5055884;28;19912;-48
2023/10/19 06:20:01;;;;;;;;;;;7.20;95.40;;;;;;5055577;28;19928;-48
2023/10/19 06:22:28;;;;;;;;;;;7.30;95.50;;;;;;5055148;28;19909;-48
2023/10/19 06:24:55;;;;;;;;;;;7.30;95.40;;;;;;5074783;28;19955;-49
2023/10/19 06:27:23;;;;;;;;;;;7.20;95.40;;;;;;5075158;28;19977;-46
2023/10/19 06:29:52;;;;;;;;;;;7.30;95.40;;;;;;5075526;28;19976;-47
2023/10/19 06:32:18;;;;;;;;;;;7.30;95.40;;;;;;5071235;28;20266;-50
2023/10/19 06:34:45;;;;;;;;;;;7.20;95.40;;;;;;5055291;28;19984;-47
2023/10/19 06:37:12;;;;;;;;;;;7.30;95.40;;;;;;5069451;28;19908;-50
2023/10/19 06:39:40;;;;;;;;;;;7.20;95.30;;;;;;5070608;28;19996;-49
2023/10/19 06:42:09;;;;;;;;;;;7.30;95.40;;;;;;5067557;28;20248;-47
2023/10/19 06:44:36;;;;;;;;;;;7.30;95.40;;;;;;5073901;28;19952;-47
2023/10/19 06:47:03;;;;;;;;;;;7.30;95.40;;;;;;5073867;28;19958;-47
2023/10/19 06:49:30;;;;;;;;;;;7.30;95.40;;;;;;5073051;28;20482;-48
2023/10/19 06:51:57;;;;;;;;;;;7.30;95.30;;;;;;5055066;28;19962;-49
2023/10/19 06:54:22;;;;;;;;;;;7.30;95.30;;;;;;5054788;28;19905;-47
2023/10/19 06:56:51;;;;;;;;;;;7.30;95.40;;;;;;5062676;28;19913;-51
2023/10/19 06:59:18;;;;;;;;;;;7.30;95.30;;;;;;5074887;28;20302;-51
2023/10/19 07:01:46;;;;;;;;;;;7.30;95.30;;;;;;5074546;28;20006;-47
2023/10/19 07:04:12;;;;;;;;;;;7.30;95.40;;;;;;5065342;28;20382;-53
2023/10/19 07:06:39;;;;;;;;;;;7.40;95.40;;;;;;5073634;28;19915;-50
2023/10/19 07:09:06;;;;;;;;;;;7.30;95.30;;;;;;5045176;28;19924;-49
2023/10/19 07:11:36;;;;;;;;;;;7.30;95.40;;;;;;5058249;28;19947;-49
2023/10/19 07:14:06;;;;;;;;;;;7.30;95.30;;;;;;5074528;28;19916;-52
2023/10/19 07:16:33;;;;;;;;;;;7.20;95.30;;;;;;5074322;28;19955;-53
2023/10/19 07:19:04;;;;;;;;;;;7.30;95.50;;;;;;5056668;28;19919;-51
2023/10/19 07:21:35;;;;;;;;;;;7.30;95.30;;;;;;5064166;28;20221;-49
2023/10/19 07:24:05;;;;;;;;;;;7.30;95.30;;;;;;5074264;28;19904;-51
2023/10/19 07:26:41;;;;;;;;;;;7.40;95.30;;;;;;5064098;28;20283;-51
2023/10/19 07:29:16;;;;;;;;;;;7.40;95.30;;;;;;5074230;28;19912;-47
2023/10/19 07:31:43;;;;;;;;;;;7.40;95.30;;;;;;5066576;28;19912;-47
2023/10/19 07:34:14;;;;;;;;;;;7.40;95.30;;;;;;5074031;28;19965;-51
2023/10/19 07:36:42;;;;;;;;;;;7.40;95.40;;;;;;5072248;28;19919;-51
2023/10/19 07:39:16;;;;;;;;;;;7.40;95.20;;;;;;5054380;28;19912;-49
2023/10/19 07:41:43;;;;;;;;;;;7.40;95.30;;;;;;5071821;28;19908;-53
2023/10/19 07:44:11;;;;;;;;;;;7.40;95.30;;;;;;5073416;28;19914;-51
2023/10/19 07:46:39;;;;;;;;;;;7.50;95.30;;;;;;5057498;28;19909;-47
2023/10/19 07:49:08;;;;;;;;;;;7.50;95.20;;;;;;5053813;28;20260;-49
2023/10/19 07:51:51;;;;;;;;;;;7.40;95.20;;;;;;5070546;28;19953;-52
2023/10/19 07:54:18;;;;;;;;;;;7.40;95.20;;;;;;5053808;28;19909;-49
2023/10/19 07:56:50;;;;;;;;;;;7.40;95.20;;;;;;5053804;28;20334;-51
2023/10/19 07:59:25;;;;;;;;;;;7.50;95.30;;;;;;5053236;28;19909;-53
2023/10/19 08:01:51;;;;;;;;;;;7.50;95.20;;;;;;5053651;28;20211;-48
2023/10/19 08:04:16;;;;;;;;;;;7.50;95.20;;;;;;5053487;28;19908;-48
2023/10/19 08:06:44;;;;;;;;;;;7.50;95.20;;;;;;5064303;28;19908;-53
2023/10/19 08:09:13;;;;;;;;;;;7.50;95.20;;;;;;5062851;28;20373;-50
2023/10/19 08:11:42;;;;;;;;;;;7.50;95.20;;;;;;5053017;28;20115;-50
2023/10/19 08:14:09;;;;;;;;;;;7.50;95.20;;;;;;5071516;28;20269;-52
2023/10/19 08:16:36;;;;;;;;;;;7.50;95.20;;;;;;5073259;28;19916;-48
2023/10/19 08:19:07;;;;;;;;;;;7.50;95.20;;;;;;5054939;28;19962;-52
2023/10/19 08:21:34;;;;;;;;;;;7.50;95.30;;;;;;5053287;28;20346;-51
2023/10/19 08:24:04;;;;;;;;;;;7.50;95.20;;;;;;5072062;28;20356;-49
2023/10/19 08:26:31;;;;;;;;;;;7.50;95.30;;;;;;5070628;28;19912;-54
2023/10/19 08:28:58;;;;;;;;;;;7.60;95.30;;;;;;5071051;28;19970;-49
2023/10/19 08:31:27;;;;;;;;;;;7.50;95.30;;;;;;5073577;28;19988;-52
2023/10/19 08:33:54;;;;;;;;;;;7.60;95.40;;;;;;5072934;28;20266;-51
2023/10/19 08:36:23;;;;;;;;;;;7.60;95.30;;;;;;5053814;28;19917;-51
2023/10/19 08:38:53;;;;;;;;;;;7.50;95.30;;;;;;5069764;28;19923;-52
2023/10/19 08:41:30;;;;;;;;;;;7.50;95.30;;;;;;5063766;28;19913;-51
2023/10/19 08:43:57;;;;;;;;;;;7.60;95.40;;;;;;5069415;28;19920;-55
2023/10/19 08:46:24;;;;;;;;;;;7.60;95.30;;;;;;5067123;28;19948;-53
2023/10/19 08:49:02;;;;;;;;;;;7.60;95.40;;;;;;5052785;28;19908;-48
2023/10/19 08:51:29;;;;;;;;;;;7.60;95.50;;;;;;5051065;28;20287;-48
2023/10/19 08:53:55;;;;;;;;;;;7.50;95.40;;;;;;5053076;28;20349;-48
2023/10/19 08:56:23;;;;;;;;;;;7.60;95.50;;;;;;5063107;28;19912;-49
2023/10/19 08:58:51;;;;;;;;;;;7.60;95.50;;;;;;5073051;28;20321;-48
2023/10/19 09:01:19;;;;;;;;;;;7.60;95.50;;;;;;5071804;28;19904;-48
2023/10/19 09:03:46;;;;;;;;;;;7.70;95.50;;;;;;5052765;28;19919;-51
2023/10/19 09:06:12;;;;;;;;;;;7.70;95.50;;;;;;5052572;28;20257;-55
2023/10/19 09:08:40;;;;;;;;;;;7.70;95.50;;;;;;5057741;28;19974;-55
2023/10/19 09:11:07;;;;;;;;;;;7.80;95.50;;;;;;5052242;28;20226;-52
2023/10/19 09:13:47;;;;;;;;;;;7.80;95.50;;;;;;5055004;28;19917;-52
2023/10/19 09:16:15;;;;;;;;;;;7.80;95.50;;;;;;5051746;28;19916;-50
2023/10/19 09:18:42;;;;;;;;;;;7.80;95.50;;;;;;5052708;28;19908;-49
2023/10/19 09:21:11;;;;;;;;;;;7.80;95.40;;;;;;5069305;28;19915;-50
2023/10/19 09:23:37;;;;;;;;;;;7.80;95.50;;;;;;5072841;28;19947;-53
2023/10/19 09:26:05;;;;;;;;;;;7.80;95.40;;;;;;5076371;28;19948;-48
2023/10/19 09:28:33;;;;;;;;;;;7.80;95.20;;;;;;5075224;28;19916;-50
2023/10/19 09:31:04;;;;;;;;;;;7.80;95.30;;;;;;5076380;28;19916;-49
2023/10/19 09:33:33;;;;;;;;;;;7.80;95.30;;;;;;5070250;28;19909;-47
2023/10/19 09:36:05;;;;;;;;;;;7.70;95.30;;;;;;5072525;28;19935;-48
2023/10/19 09:38:32;;;;;;;;;;;7.70;95.40;;;;;;5075447;28;19924;-50
2023/10/19 09:41:00;;;;;;;;;;;7.70;95.30;;;;;;5040915;28;20319;-48
2023/10/19 09:43:44;;;;;;;;;;;7.70;95.30;;;;;;5060623;28;19920;-52
2023/10/19 09:46:21;;;;;;;;;;;7.70;95.30;;;;;;5076148;28;19904;-50
2023/10/19 09:48:48;;;;;;;;;;;7.80;95.40;;;;;;5056965;28;19915;-53
2023/10/19 09:51:28;;;;;;;;;;;7.80;95.30;;;;;;5056094;28;19917;-48
2023/10/19 09:54:05;;;;;;;;;;;7.70;95.30;;;;;;5063950;28;19930;-48
2023/10/19 09:56:52;;;;;;;;;;;7.80;95.30;;;;;;5067742;28;19920;-48
2023/10/19 09:59:29;;;;;;;;;;;7.70;95.30;;;;;;5064383;28;19935;-48
2023/10/19 10:02:25;;;;;;;;;;;7.80;95.30;;;;;;5060137;28;19909;-51
2023/10/19 10:04:52;;;;;;;;;;;7.80;95.30;;;;;;5054180;28;19948;-51
2023/10/19 10:07:17;;;;;;;;;;;7.70;95.30;;;;;;5075976;28;19940;-48
2023/10/19 10:09:47;;;;;;;;;;;7.80;95.40;;;;;;5075883;28;20392;-48
2023/10/19 10:12:15;;;;;;;;;;;7.90;95.50;;;;;;5066167;28;19925;-50
2023/10/19 10:14:52;;;;;;;;;;;7.90;95.30;;;;;;5036899;28;20269;-50
2023/10/19 10:17:18;;;;;;;;;;;7.90;95.40;;;;;;5037909;28;19999;-51
2023/10/19 10:19:50;;;;;;;;;;;7.90;95.30;;;;;;5042561;28;19963;-49
2023/10/19 10:22:21;;;;;;;;;;;7.90;95.20;;;;;;5018850;28;19913;-53
2023/10/19 10:24:58;;;;;;;;;;;7.80;95.10;;;;;;5028989;28;20337;-48
2023/10/19 10:27:30;;;;;;;;;;;7.90;95.20;;;;;;5037687;28;20223;-49
2023/10/19 10:30:06;;;;;;;;;;;7.90;95.20;;;;;;5050538;28;19971;-53
2023/10/19 10:32:59;;;;;;;;;;;7.90;95.20;;;;;;5053988;28;19904;-49
2023/10/19 10:35:38;;;;;;;;;;;7.90;95.20;;;;;;5048517;28;20663;-53
2023/10/19 10:38:05;;;;;;;;;;;8.00;95.20;;;;;;5053449;28;19909;-48
2023/10/19 10:40:31;;;;;;;;;;;7.90;95.10;;;;;;5055395;28;19905;-50
2023/10/19 10:43:07;;;;;;;;;;;7.90;95.00;;;;;;5054890;28;20313;-52
2023/10/19 10:45:35;;;;;;;;;;;7.90;95.00;;;;;;5054780;28;20237;-51
2023/10/19 10:48:02;;;;;;;;;;;7.90;95.00;;;;;;5042773;28;19909;-50
2023/10/19 10:50:29;;;;;;;;;;;7.90;95.00;;;;;;5035424;28;19905;-51
2023/10/19 10:52:57;;;;;;;;;;;7.90;95.10;;;;;;5043915;28;20318;-52
2023/10/19 10:55:28;;;;;;;;;;;7.90;95.10;;;;;;5034813;28;19905;-48
2023/10/19 10:57:59;;;;;;;;;;;7.90;95.10;;;;;;5048963;28;20269;-48
2023/10/19 11:00:32;;;;;;;;;;;7.90;95.10;;;;;;5048841;28;20018;-47
2023/10/19 11:03:22;;;;;;;;;;;7.80;95.20;;;;;;5055182;28;19905;-47
2023/10/19 11:05:49;;;;;;;;;;;7.90;95.20;;;;;;5046784;28;19932;-47
2023/10/19 11:08:20;;;;;;;;;;;7.90;95.20;;;;;;5034826;28;19968;-47
2023/10/19 11:10:47;;;;;;;;;;;7.80;95.10;;;;;;5040794;28;19944;-50
2023/10/19 11:13:16;;;;;;;;;;;7.80;95.20;;;;;;5054123;28;19913;-48
2023/10/19 11:15:53;;;;;;;;;;;7.80;95.00;;;;;;5051329;28;20023;-47
2023/10/19 11:18:35;;;;;;;;;;;7.80;95.10;;;;;;5054804;28;19908;-48
2023/10/19 11:21:07;;;;;;;;;;;7.80;95.30;;;;;;5036669;28;19915;-50
2023/10/19 11:23:46;;;;;;;;;;;7.80;95.30;;;;;;5037763;28;19994;-50
2023/10/19 11:26:17;;;;;;;;;;;7.80;95.30;;;;;;5054379;28;20349;-50
2023/10/19 11:28:47;;;;;;;;;;;7.80;95.10;;;;;;5036962;28;19909;-49
2023/10/19 11:31:21;;;;;;;;;;;7.80;95.20;;;;;;5052655;28;20360;-48
2023/10/19 11:33:51;;;;;;;;;;;7.80;95.10;;;;;;5041423;28;19917;-48
2023/10/19 11:36:27;;;;;;;;;;;7.90;95.20;;;;;;5018251;28;20136;-49
2023/10/19 11:38:54;;;;;;;;;;;7.90;95.20;;;;;;5035327;28;19905;-54
2023/10/19 11:41:23;;;;;;;;;;;7.90;95.10;;;;;;5052468;28;19905;-49
2023/10/19 11:43:49;;;;;;;;;;;7.90;95.00;;;;;;5034034;28;19940;-48
2023/10/19 11:46:17;;;;;;;;;;;7.90;95.00;;;;;;5049812;28;19990;-48
2023/10/19 11:48:45;;;;;;;;;;;7.90;95.10;;;;;;5053951;28;20042;-50
2023/10/19 11:51:11;;;;;;;;;;;7.90;94.80;;;;;;5045419;28;19932;-49
2023/10/19 11:53:37;;;;;;;;;;;7.90;94.90;;;;;;5033491;28;20326;-49
2023/10/19 11:56:12;;;;;;;;;;;7.90;94.90;;;;;;5033809;28;19916;-50
2023/10/19 11:58:40;;;;;;;;;;;7.90;94.90;;;;;;5038273;28;19924;-49
2023/10/19 12:01:08;;;;;;;;;;;8.00;94.90;;;;;;5029275;28;19919;-49
2023/10/19 12:03:39;;;;;;;;;;;8.00;94.80;;;;;;5032959;28;19917;-47
2023/10/19 12:06:06;;;;;;;;;;;8.00;94.60;;;;;;5033426;28;19916;-47
2023/10/19 12:08:34;;;;;;;;;;;8.00;94.60;;;;;;5036381;28;19920;-47
2023/10/19 12:11:01;;;;;;;;;;;8.00;94.60;;;;;;5035763;28;19920;-46
2023/10/19 12:13:28;;;;;;;;;;;8.10;94.70;;;;;;5053071;28;19923;-47
2023/10/19 12:15:56;;;;;;;;;;;8.10;94.40;;;;;;5052101;28;20419;-47
2023/10/19 12:18:21;;;;;;;;;;;8.10;94.40;;;;;;5035735;28;19913;-48
2023/10/19 12:20:48;;;;;;;;;;;8.20;94.40;;;;;;5053517;28;19918;-47
2023/10/19 12:23:14;;;;;;;;;;;8.10;94.30;;;;;;5050730;28;19904;-49
2023/10/19 12:25:42;;;;;;;;;;;8.20;94.50;;;;;;5022431;28;19952;-47
2023/10/19 12:28:13;;;;;;;;;;;8.20;94.50;;;;;;5053526;28;19908;-48
2023/10/19 12:30:42;;;;;;;;;;;8.10;94.40;;;;;;5051978;28;19958;-48
2023/10/19 12:33:13;;;;;;;;;;;8.20;94.30;;;;;;5052859;28;19916;-47
2023/10/19 12:35:49;;;;;;;;;;;8.00;94.10;;;;;;5053085;28;19927;-47
2023/10/19 12:38:16;;;;;;;;;;;8.00;94.20;;;;;;5051057;28;19920;-49
2023/10/19 12:40:44;;;;;;;;;;;8.00;94.30;;;;;;5043066;28;20310;-51
2023/10/19 12:43:12;;;;;;;;;;;8.00;94.30;;;;;;5018800;28;19925;-52
2023/10/19 12:45:39;;;;;;;;;;;7.90;94.30;;;;;;5041888;28;20243;-48
2023/10/19 12:48:07;;;;;;;;;;;7.90;94.30;;;;;;5053049;28;19995;-47
2023/10/19 12:50:37;;;;;;;;;;;7.90;94.30;;;;;;5043818;28;19916;-52
2023/10/19 12:53:03;;;;;;;;;;;7.90;94.30;;;;;;5046732;28;19947;-49
2023/10/19 12:55:30;;;;;;;;;;;7.90;94.40;;;;;;5034304;28;19972;-54
2023/10/19 12:57:57;;;;;;;;;;;8.00;94.40;;;;;;5054730;28;19904;-52
2023/10/19 13:00:29;;;;;;;;;;;7.90;94.30;;;;;;5059603;28;19904;-51
2023/10/19 13:03:05;;;;;;;;;;;7.90;94.20;;;;;;5045082;28;19909;-47
2023/10/19 13:05:35;;;;;;;;;;;7.90;94.20;;;;;;5040383;28;20234;-47
2023/10/19 13:08:14;;;;;;;;;;;7.90;94.20;;;;;;5059358;28;19924;-47
2023/10/19 13:10:41;;;;;;;;;;;7.90;94.30;;;;;;5048097;28;19923;-49
2023/10/19 13:13:26;;;;;;;;;;;7.90;94.20;;;;;;5058249;28;19943;-47
2023/10/19 13:16:11;;;;;;;;;;;7.90;94.20;;;;;;5062959;28;19923;-47
2023/10/19 13:18:40;;;;;;;;;;;7.90;94.10;;;;;;5079564;28;20245;-47
2023/10/19 13:21:28;;;;;;;;;;;7.90;94.10;;;;;;5059526;28;19912;-48
2023/10/19 13:23:54;;;;;;;;;;;7.90;94.10;;;;;;5068961;28;19913;-53
2023/10/19 13:26:23;;;;;;;;;;;7.90;94.10;;;;;;5058764;28;19915;-51
2023/10/19 13:29:07;;;;;;;;;;;7.90;94.10;;;;;;5059138;28;19908;-50
2023/10/19 13:31:35;;;;;;;;;;;7.80;94.00;;;;;;5064578;28;19951;-48
2023/10/19 13:34:03;;;;;;;;;;;7.90;94.00;;;;;;5079478;28;19912;-50
2023/10/19 13:36:49;;;;;;;;;;;7.90;94.00;;;;;;5079086;28;20253;-47
2023/10/19 13:39:36;;;;;;;;;;;7.90;94.00;;;;;;5061700;28;19963;-47
2023/10/19 13:42:06;;;;;;;;;;;7.90;94.00;;;;;;5068043;28;19912;-54
2023/10/19 13:44:53;;;;;;;;;;;7.90;94.10;;;;;;5069000;28;19915;-47
2023/10/19 13:47:20;;;;;;;;;;;7.90;94.10;;;;;;5078732;28;19931;-48
2023/10/19 13:49:46;;;;;;;;;;;7.90;94.10;;;;;;5069156;28;19913;-46
2023/10/19 13:52:15;;;;;;;;;;;7.90;94.10;;;;;;5075021;28;19913;-49
2023/10/19 13:55:01;;;;;;;;;;;7.90;94.20;;;;;;5058818;28;20016;-48
2023/10/19 13:57:27;;;;;;;;;;;7.90;94.10;;;;;;5058947;28;19995;-49
2023/10/19 13:59:53;;;;;;;;;;;7.90;94.20;;;;;;5058658;28;19913;-48
2023/10/19 14:02:20;;;;;;;;;;;7.90;94.30;;;;;;5073689;28;20040;-51
2023/10/19 14:04:47;;;;;;;;;;;7.90;94.30;;;;;;5072651;28;19915;-51
2023/10/19 14:07:14;;;;;;;;;;;7.80;94.20;;;;;;5074095;28;20024;-46
2023/10/19 14:09:40;;;;;;;;;;;7.90;94.40;;;;;;5076509;28;19904;-47
2023/10/19 14:12:27;;;;;;;;;;;7.90;94.40;;;;;;5059393;28;19947;-47
2023/10/19 14:14:53;;;;;;;;;;;7.80;94.20;;;;;;5047789;28;19920;-51
2023/10/19 14:17:20;;;;;;;;;;;7.80;94.20;;;;;;5050469;28;19924;-47
2023/10/19 14:20:12;;;;;;;;;;;7.80;94.40;;;;;;5054884;28;19966;-46
2023/10/19 14:22:46;;;;;;;;;;;7.80;94.40;;;;;;5042656;28;20250;-48
2023/10/19 14:25:12;;;;;;;;;;;7.80;94.40;;;;;;5046777;28;19920;-49
2023/10/19 14:27:40;;;;;;;;;;;7.80;94.60;;;;;;5055438;28;19905;-46
2023/10/19 14:30:06;;;;;;;;;;;7.80;94.50;;;;;;5043588;28;20322;-52
2023/10/19 14:32:32;;;;;;;;;;;7.80;94.60;;;;;;5046793;28;20023;-47
2023/10/19 14:34:59;;;;;;;;;;;7.90;94.60;;;;;;5035296;28;19956;-49
2023/10/19 14:37:48;;;;;;;;;;;7.80;94.60;;;;;;5034774;28;20016;-46
2023/10/19 14:40:25;;;;;;;;;;;7.80;94.50;;;;;;5035286;28;19909;-47
2023/10/19 14:43:01;;;;;;;;;;;7.80;94.40;;;;;;5035120;28;20261;-46
2023/10/19 14:45:32;;;;;;;;;;;7.80;94.30;;;;;;5055200;28;19920;-48
2023/10/19 14:48:19;;;;;;;;;;;7.70;94.40;;;;;;5040670;28;20012;-46
2023/10/19 14:51:05;;;;;;;;;;;7.80;94.60;;;;;;5033898;28;20003;-50
2023/10/19 14:53:49;;;;;;;;;;;7.80;94.50;;;;;;5043211;28;19916;-48
2023/10/19 14:56:16;;;;;;;;;;;7.80;94.60;;;;;;5049173;28;20368;-46
2023/10/19 14:58:43;;;;;;;;;;;7.80;94.60;;;;;;5017445;28;19967;-51
2023/10/19 15:01:16;;;;;;;;;;;7.80;94.60;;;;;;5016999;28;20339;-48
2023/10/19 15:03:57;;;;;;;;;;;7.80;94.60;;;;;;5033978;28;19940;-46
2023/10/19 15:06:24;;;;;;;;;;;7.80;94.70;;;;;;5035100;28;20216;-51